Ritzville, WA

7:04 AM PDT on March 24, 2017 (GMT -0700)
Packard | | Change Station

Elev 1939 ft 47.23 °N, 118.45 °W | Updated 19 seconds ago

Rain
Rain
39.4 °F
Feels Like 39 °F
N
2.9
Wind Variable Wind from East
Gusts 5.0 mph

Today
High -- | Low -- °F
--% Chance of Precip.
Yesterday
High -- | Low -- °F
Precip. -- in
Pressure 29.89 in
Visibility 10.0 miles
Clouds Few 4000 ft
Overcast 4700 ft
Windchill 39 °F
Dew Point 38 °F
Humidity 94%
Rainfall 0.09 in
Snow Depth Not available.
6:47 AM 7:12 PM
Waning Crescent, 15% visible
METAR KMWH 241352Z 05004KT 10SM -RA FEW040 OVC047 05/03 A2987 RMK AO2 RAB17 SLP121 P0001 T00500033
Pressure 29.89 in
Visibility 10.0 miles
Clouds Few 4000 ft
Overcast 4700 ft
Windchill 39 °F
Dew Point 38 °F
Humidity 94%
Rainfall 0.09 in
Snow Depth Not available.
6:47 AM 7:12 PM
Waning Crescent, 15% visible
METAR KMWH 241352Z 05004KT 10SM -RA FEW040 OVC047 05/03 A2987 RMK AO2 RAB17 SLP121 P0001 T00500033

Get Severe Weather Alerts

Thanks for signing up!

Be on the lookout for a verification email in your inbox.

You'll start receiving the daily forecast at 8 AM.

×

10-Day Weather Forecast

Almanac

Astronomy

Mar. 24, 2017 Rise Set
Actual Time
Civil Twilight
Nautical Twilight
Astronomical Twilight
Moon
Length of Visible Light
Length of Day
Tomorrow will be .
, % of the Moon is Illuminated

Today's Extremes

State Highs State Lows

Community

WunderPhotos

Upload Photos

1,962,540 photos uploaded!

WunderBlog® & News

Nearby

Air Quality

  Air Quality AQ Index Pollutant
Not available.

Snow Depth

Station Depth Elevation

Earthquake Activity

City Distance Mag. Time & Date
Minimum magnitude displayed is 2.5.

Earthquake Activity

City Distance Mag. Time & Date
Minimum magnitude displayed is 2.5.

Coastal Water Temperatures

Place Temperature

Stations

Nearby Weather Stations

Station Location Temp. Windchill Dew Point Humidity Wind Precip. Elev Updated Type
                   

Watches & Warnings

There are currently no watches in effect.